sensor_id;sensor_type;location;lat;lon;timestamp;temperature;humidity
20946;DHT22;10632;51.276;7.116;2023-06-14T00:01:21;18.30;93.00
20946;DHT22;10632;51.276;7.116;2023-06-14T00:03:48;18.30;93.30
20946;DHT22;10632;51.276;7.116;2023-06-14T00:06:15;18.30;93.40
20946;DHT22;10632;51.276;7.116;2023-06-14T00:08:42;18.30;93.30
20946;DHT22;10632;51.276;7.116;2023-06-14T00:11:09;18.20;93.40
20946;DHT22;10632;51.276;7.116;2023-06-14T00:13:36;18.20;93.50
20946;DHT22;10632;51.276;7.116;2023-06-14T00:16:04;18.20;93.50
20946;DHT22;10632;51.276;7.116;2023-06-14T00:18:35;18.20;93.50
20946;DHT22;10632;51.276;7.116;2023-06-14T00:21:02;18.10;93.60
20946;DHT22;10632;51.276;7.116;2023-06-14T00:23:29;18.10;93.90
20946;DHT22;10632;51.276;7.116;2023-06-14T00:25:56;18.10;93.90
20946;DHT22;10632;51.276;7.116;2023-06-14T00:28:23;18.10;94.30
20946;DHT22;10632;51.276;7.116;2023-06-14T00:30:50;18.00;94.40
20946;DHT22;10632;51.276;7.116;2023-06-14T00:33:18;18.00;94.60
20946;DHT22;10632;51.276;7.116;2023-06-14T00:35:45;18.00;94.70
20946;DHT22;10632;51.276;7.116;2023-06-14T00:38:12;18.00;94.80
20946;DHT22;10632;51.276;7.116;2023-06-14T00:40:39;17.90;94.50
20946;DHT22;10632;51.276;7.116;2023-06-14T00:43:06;17.90;94.60
20946;DHT22;10632;51.276;7.116;2023-06-14T00:45:33;17.90;94.60
20946;DHT22;10632;51.276;7.116;2023-06-14T00:48:01;17.90;94.60
20946;DHT22;10632;51.276;7.116;2023-06-14T00:50:30;17.80;94.50
20946;DHT22;10632;51.276;7.116;2023-06-14T00:52:58;17.80;94.40
20946;DHT22;10632;51.276;7.116;2023-06-14T00:55:26;17.90;94.20
20946;DHT22;10632;51.276;7.116;2023-06-14T00:57:54;17.80;94.10
20946;DHT22;10632;51.276;7.116;2023-06-14T01:00:21;17.80;94.40
20946;DHT22;10632;51.276;7.116;2023-06-14T01:02:48;17.80;94.90
20946;DHT22;10632;51.276;7.116;2023-06-14T01:05:16;17.80;94.80
20946;DHT22;10632;51.276;7.116;2023-06-14T01:07:55;17.80;94.90
20946;DHT22;10632;51.276;7.116;2023-06-14T01:10:35;17.70;94.80
20946;DHT22;10632;51.276;7.116;2023-06-14T01:13:10;17.70;94.80
20946;DHT22;10632;51.276;7.116;2023-06-14T01:15:41;17.70;94.70
20946;DHT22;10632;51.276;7.116;2023-06-14T01:18:09;17.70;94.70
20946;DHT22;10632;51.276;7.116;2023-06-14T01:20:42;17.70;94.40
20946;DHT22;10632;51.276;7.116;2023-06-14T01:23:11;17.60;94.30
20946;DHT22;10632;51.276;7.116;2023-06-14T01:25:38;17.60;94.30
20946;DHT22;10632;51.276;7.116;2023-06-14T01:28:07;17.60;94.50
20946;DHT22;10632;51.276;7.116;2023-06-14T01:30:36;17.60;94.60
20946;DHT22;10632;51.276;7.116;2023-06-14T01:33:04;17.60;94.60
20946;DHT22;10632;51.276;7.116;2023-06-14T01:35:32;17.60;94.80
20946;DHT22;10632;51.276;7.116;2023-06-14T01:37:59;17.50;95.20
20946;DHT22;10632;51.276;7.116;2023-06-14T01:40:28;17.50;94.90
20946;DHT22;10632;51.276;7.116;2023-06-14T01:42:55;17.50;95.00
20946;DHT22;10632;51.276;7.116;2023-06-14T01:45:23;17.40;95.10
20946;DHT22;10632;51.276;7.116;2023-06-14T01:47:50;17.40;95.20
20946;DHT22;10632;51.276;7.116;2023-06-14T01:50:19;17.40;95.30
20946;DHT22;10632;51.276;7.116;2023-06-14T01:52:46;17.30;95.40
20946;DHT22;10632;51.276;7.116;2023-06-14T01:55:13;17.30;95.10
20946;DHT22;10632;51.276;7.116;2023-06-14T01:57:44;17.30;94.90
20946;DHT22;10632;51.276;7.116;2023-06-14T02:00:12;17.20;94.90
20946;DHT22;10632;51.276;7.116;2023-06-14T02:02:40;17.20;95.00
20946;DHT22;10632;51.276;7.116;2023-06-14T02:05:07;17.20;94.90
20946;DHT22;10632;51.276;7.116;2023-06-14T02:07:34;17.20;95.20
20946;DHT22;10632;51.276;7.116;2023-06-14T02:10:01;17.10;95.20
20946;DHT22;10632;51.276;7.116;2023-06-14T02:12:28;17.10;95.20
20946;DHT22;10632;51.276;7.116;2023-06-14T02:14:56;17.10;95.20
20946;DHT22;10632;51.276;7.116;2023-06-14T02:17:24;17.10;95.30
20946;DHT22;10632;51.276;7.116;2023-06-14T02:19:51;17.00;95.30
20946;DHT22;10632;51.276;7.116;2023-06-14T02:22:18;17.00;95.30
20946;DHT22;10632;51.276;7.116;2023-06-14T02:24:47;17.00;95.40
20946;DHT22;10632;51.276;7.116;2023-06-14T02:27:14;16.90;95.30
20946;DHT22;10632;51.276;7.116;2023-06-14T02:29:41;16.90;95.40
20946;DHT22;10632;51.276;7.116;2023-06-14T02:32:09;16.90;95.50
20946;DHT22;10632;51.276;7.116;2023-06-14T02:34:36;16.80;95.50
20946;DHT22;10632;51.276;7.116;2023-06-14T02:37:06;16.80;95.80
20946;DHT22;10632;51.276;7.116;2023-06-14T02:39:33;16.80;95.50
20946;DHT22;10632;51.276;7.116;2023-06-14T02:42:00;16.70;95.50
20946;DHT22;10632;51.276;7.116;2023-06-14T02:44:27;16.70;95.50
20946;DHT22;10632;51.276;7.116;2023-06-14T02:46:54;16.70;95.50
20946;DHT22;10632;51.276;7.116;2023-06-14T02:49:22;16.60;95.50
20946;DHT22;10632;51.276;7.116;2023-06-14T02:51:49;16.60;95.70
20946;DHT22;10632;51.276;7.116;2023-06-14T02:54:16;16.60;95.80
20946;DHT22;10632;51.276;7.116;2023-06-14T02:56:43;16.50;95.70
20946;DHT22;10632;51.276;7.116;2023-06-14T02:59:10;16.40;95.80
20946;DHT22;10632;51.276;7.116;2023-06-14T03:01:37;16.40;95.90
20946;DHT22;10632;51.276;7.116;2023-06-14T03:04:06;16.40;95.90
20946;DHT22;10632;51.276;7.116;2023-06-14T03:06:34;16.30;95.90
20946;DHT22;10632;51.276;7.116;2023-06-14T03:09:02;16.30;95.80
20946;DHT22;10632;51.276;7.116;2023-06-14T03:11:30;16.30;95.90
20946;DHT22;10632;51.276;7.116;2023-06-14T03:13:57;16.30;95.90
20946;DHT22;10632;51.276;7.116;2023-06-14T03:16:24;16.20;96.00
20946;DHT22;10632;51.276;7.116;2023-06-14T03:18:55;16.20;96.10
20946;DHT22;10632;51.276;7.116;2023-06-14T03:21:22;16.20;96.20
20946;DHT22;10632;51.276;7.116;2023-06-14T03:23:51;16.10;96.20
20946;DHT22;10632;51.276;7.116;2023-06-14T03:26:19;16.10;96.20
20946;DHT22;10632;51.276;7.116;2023-06-14T03:28:47;16.00;96.30
20946;DHT22;10632;51.276;7.116;2023-06-14T03:31:15;16.00;96.40
20946;DHT22;10632;51.276;7.116;2023-06-14T03:33:45;16.00;96.50
20946;DHT22;10632;51.276;7.116;2023-06-14T03:36:12;16.00;96.60
20946;DHT22;10632;51.276;7.116;2023-06-14T03:38:39;15.90;96.60
20946;DHT22;10632;51.276;7.116;2023-06-14T03:41:07;15.90;96.70
20946;DHT22;10632;51.276;7.116;2023-06-14T03:43:34;15.90;96.60
20946;DHT22;10632;51.276;7.116;2023-06-14T03:46:00;15.80;96.50
20946;DHT22;10632;51.276;7.116;2023-06-14T03:48:27;15.80;96.40
20946;DHT22;10632;51.276;7.116;2023-06-14T03:50:54;15.80;96.40
20946;DHT22;10632;51.276;7.116;2023-06-14T03:53:21;15.80;96.20
20946;DHT22;10632;51.276;7.116;2023-06-14T03:55:49;15.70;96.10
20946;DHT22;10632;51.276;7.116;2023-06-14T03:58:19;15.70;96.30
20946;DHT22;10632;51.276;7.116;2023-06-14T04:00:46;15.70;96.40
20946;DHT22;10632;51.276;7.116;2023-06-14T04:03:13;15.70;96.60
20946;DHT22;10632;51.276;7.116;2023-06-14T04:05:41;15.70;96.70
20946;DHT22;10632;51.276;7.116;2023-06-14T04:08:08;15.60;96.90
20946;DHT22;10632;51.276;7.116;2023-06-14T04:10:36;15.60;97.10
20946;DHT22;10632;51.276;7.116;2023-06-14T04:13:04;15.60;97.10
20946;DHT22;10632;51.276;7.116;2023-06-14T04:15:42;15.60;97.20
20946;DHT22;10632;51.276;7.116;2023-06-14T04:18:11;15.60;97.20
20946;DHT22;10632;51.276;7.116;2023-06-14T04:20:38;15.60;97.20
20946;DHT22;10632;51.276;7.116;2023-06-14T04:23:12;15.50;97.50
20946;DHT22;10632;51.276;7.116;2023-06-14T04:25:39;15.50;97.60
20946;DHT22;10632;51.276;7.116;2023-06-14T04:28:11;15.50;97.60
20946;DHT22;10632;51.276;7.116;2023-06-14T04:30:41;15.50;97.50
20946;DHT22;10632;51.276;7.116;2023-06-14T04:33:08;15.40;97.60
20946;DHT22;10632;51.276;7.116;2023-06-14T04:35:35;15.40;97.80
20946;DHT22;10632;51.276;7.116;2023-06-14T04:38:03;15.40;97.90
20946;DHT22;10632;51.276;7.116;2023-06-14T04:40:34;15.40;98.10
20946;DHT22;10632;51.276;7.116;2023-06-14T04:43:08;15.40;98.40
20946;DHT22;10632;51.276;7.116;2023-06-14T04:45:37;15.30;98.40
20946;DHT22;10632;51.276;7.116;2023-06-14T04:48:07;15.30;98.50
20946;DHT22;10632;51.276;7.116;2023-06-14T04:50:34;15.30;98.60
20946;DHT22;10632;51.276;7.116;2023-06-14T04:53:00;15.30;98.80
20946;DHT22;10632;51.276;7.116;2023-06-14T04:55:28;15.40;99.10
20946;DHT22;10632;51.276;7.116;2023-06-14T04:57:56;15.40;99.20
20946;DHT22;10632;51.276;7.116;2023-06-14T05:00:23;15.40;99.50
20946;DHT22;10632;51.276;7.116;2023-06-14T05:02:50;15.40;99.60
20946;DHT22;10632;51.276;7.116;2023-06-14T05:05:20;15.30;99.70
20946;DHT22;10632;51.276;7.116;2023-06-14T05:07:47;15.30;99.90
20946;DHT22;10632;51.276;7.116;2023-06-14T05:10:13;15.30;99.90
20946;DHT22;10632;51.276;7.116;2023-06-14T05:12:40;15.30;99.90
20946;DHT22;10632;51.276;7.116;2023-06-14T05:15:09;15.30;99.90
20946;DHT22;10632;51.276;7.116;2023-06-14T05:17:36;15.30;99.90
20946;DHT22;10632;51.276;7.116;2023-06-14T05:20:07;15.30;99.90
20946;DHT22;10632;51.276;7.116;2023-06-14T05:22:37;15.30;99.90
20946;DHT22;10632;51.276;7.116;2023-06-14T05:25:04;15.40;99.90
20946;DHT22;10632;51.276;7.116;2023-06-14T05:27:31;15.40;99.90
20946;DHT22;10632;51.276;7.116;2023-06-14T05:30:00;15.50;99.90
20946;DHT22;10632;51.276;7.116;2023-06-14T05:32:26;15.50;99.90
20946;DHT22;10632;51.276;7.116;2023-06-14T05:34:53;15.60;99.90
20946;DHT22;10632;51.276;7.116;2023-06-14T05:37:20;15.70;99.90
20946;DHT22;10632;51.276;7.116;2023-06-14T05:39:48;15.80;99.90
20946;DHT22;10632;51.276;7.116;2023-06-14T05:42:15;15.80;99.90
20946;DHT22;10632;51.276;7.116;2023-06-14T05:44:42;15.90;99.90
20946;DHT22;10632;51.276;7.116;2023-06-14T05:47:09;16.00;99.90
20946;DHT22;10632;51.276;7.116;2023-06-14T05:49:36;16.00;99.90
20946;DHT22;10632;51.276;7.116;2023-06-14T05:52:03;16.00;99.90
20946;DHT22;10632;51.276;7.116;2023-06-14T05:54:30;16.10;99.90
20946;DHT22;10632;51.276;7.116;2023-06-14T05:56:58;16.20;99.90
20946;DHT22;10632;51.276;7.116;2023-06-14T05:59:27;16.30;99.90
20946;DHT22;10632;51.276;7.116;2023-06-14T06:01:53;16.30;99.50
20946;DHT22;10632;51.276;7.116;2023-06-14T06:04:20;16.40;99.70
20946;DHT22;10632;51.276;7.116;2023-06-14T06:06:47;16.50;99.80
20946;DHT22;10632;51.276;7.116;2023-06-14T06:09:15;16.60;99.70
20946;DHT22;10632;51.276;7.116;2023-06-14T06:11:44;16.70;99.80
20946;DHT22;10632;51.276;7.116;2023-06-14T06:14:13;16.80;99.60
20946;DHT22;10632;51.276;7.116;2023-06-14T06:16:40;16.90;98.70
20946;DHT22;10632;51.276;7.116;2023-06-14T06:19:07;17.00;97.80
20946;DHT22;10632;51.276;7.116;2023-06-14T06:21:34;17.10;97.80
20946;DHT22;10632;51.276;7.116;2023-06-14T06:24:01;17.30;98.10
20946;DHT22;10632;51.276;7.116;2023-06-14T06:26:31;17.30;98.10
20946;DHT22;10632;51.276;7.116;2023-06-14T06:28:57;17.40;97.90
20946;DHT22;10632;51.276;7.116;2023-06-14T06:31:26;17.50;98.20
20946;DHT22;10632;51.276;7.116;2023-06-14T06:33:53;17.50;97.70
20946;DHT22;10632;51.276;7.116;2023-06-14T06:36:20;17.60;97.00
20946;DHT22;10632;51.276;7.116;2023-06-14T06:38:47;17.70;96.60
20946;DHT22;10632;51.276;7.116;2023-06-14T06:41:14;17.70;96.60
20946;DHT22;10632;51.276;7.116;2023-06-14T06:43:41;17.80;96.80
20946;DHT22;10632;51.276;7.116;2023-06-14T06:46:08;17.80;96.70
20946;DHT22;10632;51.276;7.116;2023-06-14T06:48:37;17.90;96.20
20946;DHT22;10632;51.276;7.116;2023-06-14T06:51:04;18.00;96.30
20946;DHT22;10632;51.276;7.116;2023-06-14T06:53:31;18.00;96.00
20946;DHT22;10632;51.276;7.116;2023-06-14T06:55:58;18.10;95.90
20946;DHT22;10632;51.276;7.116;2023-06-14T06:58:25;18.20;95.20
20946;DHT22;10632;51.276;7.116;2023-06-14T07:00:52;18.20;95.00
20946;DHT22;10632;51.276;7.116;2023-06-14T07:03:19;18.20;95.10
20946;DHT22;10632;51.276;7.116;2023-06-14T07:05:47;18.20;95.10
20946;DHT22;10632;51.276;7.116;2023-06-14T07:08:14;18.20;95.70
20946;DHT22;10632;51.276;7.116;2023-06-14T07:10:41;18.20;96.20
20946;DHT22;10632;51.276;7.116;2023-06-14T07:13:08;18.30;95.10
20946;DHT22;10632;51.276;7.116;2023-06-14T07:15:35;18.30;94.10
20946;DHT22;10632;51.276;7.116;2023-06-14T07:18:02;18.40;93.70
20946;DHT22;10632;51.276;7.116;2023-06-14T07:20:31;18.50;93.70
20946;DHT22;10632;51.276;7.116;2023-06-14T07:22:59;18.50;93.70
20946;DHT22;10632;51.276;7.116;2023-06-14T07:25:26;18.60;93.40
20946;DHT22;10632;51.276;7.116;2023-06-14T07:27:53;18.60;93.60
20946;DHT22;10632;51.276;7.116;2023-06-14T07:30:20;18.70;93.60
20946;DHT22;10632;51.276;7.116;2023-06-14T07:32:51;18.70;94.10
20946;DHT22;10632;51.276;7.116;2023-06-14T07:35:18;18.70;93.80
20946;DHT22;10632;51.276;7.116;2023-06-14T07:37:45;18.80;93.50
20946;DHT22;10632;51.276;7.116;2023-06-14T07:40:14;18.80;93.70
20946;DHT22;10632;51.276;7.116;2023-06-14T07:42:41;18.90;92.70
20946;DHT22;10632;51.276;7.116;2023-06-14T07:45:08;18.90;92.20
20946;DHT22;10632;51.276;7.116;2023-06-14T07:47:35;19.00;92.70
20946;DHT22;10632;51.276;7.116;2023-06-14T07:50:03;19.00;92.80
20946;DHT22;10632;51.276;7.116;2023-06-14T07:52:29;19.00;93.00
20946;DHT22;10632;51.276;7.116;2023-06-14T07:54:56;19.10;92.70
20946;DHT22;10632;51.276;7.116;2023-06-14T07:57:25;19.10;93.40
20946;DHT22;10632;51.276;7.116;2023-06-14T07:59:52;19.20;93.10
20946;DHT22;10632;51.276;7.116;2023-06-14T08:02:18;19.20;92.90
20946;DHT22;10632;51.276;7.116;2023-06-14T08:04:45;19.30;92.80
20946;DHT22;10632;51.276;7.116;2023-06-14T08:07:14;19.30;93.10
20946;DHT22;10632;51.276;7.116;2023-06-14T08:09:40;19.40;93.00
20946;DHT22;10632;51.276;7.116;2023-06-14T08:12:08;19.40;92.80
20946;DHT22;10632;51.276;7.116;2023-06-14T08:14:38;19.40;93.10
20946;DHT22;10632;51.276;7.116;2023-06-14T08:17:05;19.40;93.20
20946;DHT22;10632;51.276;7.116;2023-06-14T08:19:32;19.50;93.30
20946;DHT22;10632;51.276;7.116;2023-06-14T08:21:59;19.50;92.60
20946;DHT22;10632;51.276;7.116;2023-06-14T08:24:26;19.50;92.90
20946;DHT22;10632;51.276;7.116;2023-06-14T08:26:53;19.40;93.10
20946;DHT22;10632;51.276;7.116;2023-06-14T08:29:21;19.50;93.50
20946;DHT22;10632;51.276;7.116;2023-06-14T08:31:50;19.40;93.40
20946;DHT22;10632;51.276;7.116;2023-06-14T08:34:16;19.50;93.90
20946;DHT22;10632;51.276;7.116;2023-06-14T08:36:43;19.50;93.50
20946;DHT22;10632;51.276;7.116;2023-06-14T08:39:10;19.50;93.40
20946;DHT22;10632;51.276;7.116;2023-06-14T08:41:37;19.60;93.10
20946;DHT22;10632;51.276;7.116;2023-06-14T08:44:04;19.60;93.10
20946;DHT22;10632;51.276;7.116;2023-06-14T08:46:33;19.60;92.40
20946;DHT22;10632;51.276;7.116;2023-06-14T08:49:02;19.70;92.50
20946;DHT22;10632;51.276;7.116;2023-06-14T08:51:31;19.70;92.80
20946;DHT22;10632;51.276;7.116;2023-06-14T08:54:00;19.70;93.00
20946;DHT22;10632;51.276;7.116;2023-06-14T08:56:28;19.60;92.70
20946;DHT22;10632;51.276;7.116;2023-06-14T08:58:55;19.60;92.50
20946;DHT22;10632;51.276;7.116;2023-06-14T09:01:26;19.70;91.40
20946;DHT22;10632;51.276;7.116;2023-06-14T09:03:53;19.70;90.90
20946;DHT22;10632;51.276;7.116;2023-06-14T09:06:24;19.70;90.50
20946;DHT22;10632;51.276;7.116;2023-06-14T09:08:51;19.70;90.60
20946;DHT22;10632;51.276;7.116;2023-06-14T09:11:19;19.70;90.20
20946;DHT22;10632;51.276;7.116;2023-06-14T09:13:47;19.70;90.10
20946;DHT22;10632;51.276;7.116;2023-06-14T09:16:14;19.70;90.30
20946;DHT22;10632;51.276;7.116;2023-06-14T09:18:42;19.70;90.30
20946;DHT22;10632;51.276;7.116;2023-06-14T09:21:10;19.70;90.30
20946;DHT22;10632;51.276;7.116;2023-06-14T09:23:40;19.70;90.30
20946;DHT22;10632;51.276;7.116;2023-06-14T09:26:08;19.70;90.50
20946;DHT22;10632;51.276;7.116;2023-06-14T09:28:35;19.80;90.30
20946;DHT22;10632;51.276;7.116;2023-06-14T09:31:02;20.00;90.10
20946;DHT22;10632;51.276;7.116;2023-06-14T09:33:31;20.10;90.30
20946;DHT22;10632;51.276;7.116;2023-06-14T09:35:58;20.10;89.80
20946;DHT22;10632;51.276;7.116;2023-06-14T09:38:25;20.20;90.40
20946;DHT22;10632;51.276;7.116;2023-06-14T09:40:56;20.20;90.30
20946;DHT22;10632;51.276;7.116;2023-06-14T09:43:23;20.20;90.40
20946;DHT22;10632;51.276;7.116;2023-06-14T09:45:51;20.20;90.10
20946;DHT22;10632;51.276;7.116;2023-06-14T09:48:18;20.20;90.30
20946;DHT22;10632;51.276;7.116;2023-06-14T09:50:46;20.20;90.50
20946;DHT22;10632;51.276;7.116;2023-06-14T09:53:14;20.40;90.40
20946;DHT22;10632;51.276;7.116;2023-06-14T09:55:43;20.50;90.40
20946;DHT22;10632;51.276;7.116;2023-06-14T09:58:12;20.60;90.30
20946;DHT22;10632;51.276;7.116;2023-06-14T10:00:41;20.70;90.40
20946;DHT22;10632;51.276;7.116;2023-06-14T10:03:12;20.80;90.00
20946;DHT22;10632;51.276;7.116;2023-06-14T10:05:43;20.80;89.50
20946;DHT22;10632;51.276;7.116;2023-06-14T10:08:14;20.80;89.80
20946;DHT22;10632;51.276;7.116;2023-06-14T10:10:43;20.80;89.60
20946;DHT22;10632;51.276;7.116;2023-06-14T10:13:11;20.90;90.10
20946;DHT22;10632;51.276;7.116;2023-06-14T10:15:48;21.00;90.30
20946;DHT22;10632;51.276;7.116;2023-06-14T10:18:24;21.10;90.30
20946;DHT22;10632;51.276;7.116;2023-06-14T10:20:59;21.20;90.80
20946;DHT22;10632;51.276;7.116;2023-06-14T10:23:31;21.40;90.30
20946;DHT22;10632;51.276;7.116;2023-06-14T10:25:59;21.60;90.20
20946;DHT22;10632;51.276;7.116;2023-06-14T10:28:28;21.60;90.40
20946;DHT22;10632;51.276;7.116;2023-06-14T10:31:06;21.70;90.40
20946;DHT22;10632;51.276;7.116;2023-06-14T10:33:33;21.80;90.30
20946;DHT22;10632;51.276;7.116;2023-06-14T10:36:11;22.00;90.30
20946;DHT22;10632;51.276;7.116;2023-06-14T10:38:57;22.10;89.80
20946;DHT22;10632;51.276;7.116;2023-06-14T10:41:26;22.00;90.10
20946;DHT22;10632;51.276;7.116;2023-06-14T10:46:53;22.00;90.00
20946;DHT22;10632;51.276;7.116;2023-06-14T10:49:20;22.00;90.10
20946;DHT22;10632;51.276;7.116;2023-06-14T10:51:50;22.00;90.10
20946;DHT22;10632;51.276;7.116;2023-06-14T10:54:20;22.10;90.10
20946;DHT22;10632;51.276;7.116;2023-06-14T10:56:48;22.20;89.40
20946;DHT22;10632;51.276;7.116;2023-06-14T10:59:17;22.30;89.30
20946;DHT22;10632;51.276;7.116;2023-06-14T11:01:54;22.30;90.00
20946;DHT22;10632;51.276;7.116;2023-06-14T11:04:29;22.40;90.20
20946;DHT22;10632;51.276;7.116;2023-06-14T11:07:17;22.60;89.30
20946;DHT22;10632;51.276;7.116;2023-06-14T11:10:05;22.80;89.00
20946;DHT22;10632;51.276;7.116;2023-06-14T11:12:37;23.00;87.20
20946;DHT22;10632;51.276;7.116;2023-06-14T11:15:09;23.00;86.40
20946;DHT22;10632;51.276;7.116;2023-06-14T11:17:36;23.00;85.70
20946;DHT22;10632;51.276;7.116;2023-06-14T11:20:09;22.90;86.30
20946;DHT22;10632;51.276;7.116;2023-06-14T11:22:40;23.00;88.80
20946;DHT22;10632;51.276;7.116;2023-06-14T11:25:09;23.10;87.40
20946;DHT22;10632;51.276;7.116;2023-06-14T11:27:36;23.10;87.40
20946;DHT22;10632;51.276;7.116;2023-06-14T11:30:06;23.10;87.40
20946;DHT22;10632;51.276;7.116;2023-06-14T11:32:34;23.10;88.60
20946;DHT22;10632;51.276;7.116;2023-06-14T11:35:02;23.20;87.40
20946;DHT22;10632;51.276;7.116;2023-06-14T11:37:30;23.20;86.80
20946;DHT22;10632;51.276;7.116;2023-06-14T11:39:58;23.20;87.10
20946;DHT22;10632;51.276;7.116;2023-06-14T11:42:27;23.30;87.40
20946;DHT22;10632;51.276;7.116;2023-06-14T11:44:54;23.40;87.50
20946;DHT22;10632;51.276;7.116;2023-06-14T11:47:21;23.60;87.60
20946;DHT22;10632;51.276;7.116;2023-06-14T11:49:50;23.70;86.60
20946;DHT22;10632;51.276;7.116;2023-06-14T11:52:18;23.70;87.00
20946;DHT22;10632;51.276;7.116;2023-06-14T11:54:48;23.80;86.40
20946;DHT22;10632;51.276;7.116;2023-06-14T11:57:15;23.70;85.90
20946;DHT22;10632;51.276;7.116;2023-06-14T11:59:45;23.70;86.10
20946;DHT22;10632;51.276;7.116;2023-06-14T12:02:14;23.70;85.90
20946;DHT22;10632;51.276;7.116;2023-06-14T12:04:41;23.60;87.40
20946;DHT22;10632;51.276;7.116;2023-06-14T12:07:10;23.60;87.00
20946;DHT22;10632;51.276;7.116;2023-06-14T12:09:40;23.60;87.80
20946;DHT22;10632;51.276;7.116;2023-06-14T12:12:09;23.80;87.70
20946;DHT22;10632;51.276;7.116;2023-06-14T12:14:36;23.90;86.70
20946;DHT22;10632;51.276;7.116;2023-06-14T12:17:06;24.00;86.80
20946;DHT22;10632;51.276;7.116;2023-06-14T12:19:41;24.10;86.80
20946;DHT22;10632;51.276;7.116;2023-06-14T12:22:11;24.10;86.40
20946;DHT22;10632;51.276;7.116;2023-06-14T12:24:38;24.20;86.00
20946;DHT22;10632;51.276;7.116;2023-06-14T12:27:06;24.20;86.50
20946;DHT22;10632;51.276;7.116;2023-06-14T12:29:33;24.20;85.50
20946;DHT22;10632;51.276;7.116;2023-06-14T12:32:00;24.30;85.40
20946;DHT22;10632;51.276;7.116;2023-06-14T12:34:27;24.20;85.90
20946;DHT22;10632;51.276;7.116;2023-06-14T12:36:54;24.20;85.00
20946;DHT22;10632;51.276;7.116;2023-06-14T12:39:23;24.20;86.00
20946;DHT22;10632;51.276;7.116;2023-06-14T12:41:51;24.20;85.80
20946;DHT22;10632;51.276;7.116;2023-06-14T12:44:18;24.30;85.40
20946;DHT22;10632;51.276;7.116;2023-06-14T12:46:45;24.30;84.60
20946;DHT22;10632;51.276;7.116;2023-06-14T12:49:12;24.20;85.30
20946;DHT22;10632;51.276;7.116;2023-06-14T12:51:39;24.20;85.30
20946;DHT22;10632;51.276;7.116;2023-06-14T12:54:06;24.20;85.40
20946;DHT22;10632;51.276;7.116;2023-06-14T12:56:35;24.30;85.70
20946;DHT22;10632;51.276;7.116;2023-06-14T12:59:02;24.30;85.10
20946;DHT22;10632;51.276;7.116;2023-06-14T13:04:04;24.20;84.30
20946;DHT22;10632;51.276;7.116;2023-06-14T13:06:32;24.20;84.40
20946;DHT22;10632;51.276;7.116;2023-06-14T13:08:59;24.20;84.40
20946;DHT22;10632;51.276;7.116;2023-06-14T13:11:27;24.10;85.00
20946;DHT22;10632;51.276;7.116;2023-06-14T13:13:55;24.10;85.40
20946;DHT22;10632;51.276;7.116;2023-06-14T13:16:22;24.00;86.00
20946;DHT22;10632;51.276;7.116;2023-06-14T13:19:13;24.00;86.60
20946;DHT22;10632;51.276;7.116;2023-06-14T13:21:47;24.00;85.50
20946;DHT22;10632;51.276;7.116;2023-06-14T13:24:17;24.00;85.90
20946;DHT22;10632;51.276;7.116;2023-06-14T13:26:46;24.10;85.90
20946;DHT22;10632;51.276;7.116;2023-06-14T13:29:16;24.20;85.70
20946;DHT22;10632;51.276;7.116;2023-06-14T13:31:43;24.40;84.50
20946;DHT22;10632;51.276;7.116;2023-06-14T13:34:10;24.40;84.00
20946;DHT22;10632;51.276;7.116;2023-06-14T13:36:37;24.50;83.40
20946;DHT22;10632;51.276;7.116;2023-06-14T13:39:04;24.40;84.10
20946;DHT22;10632;51.276;7.116;2023-06-14T13:41:32;24.40;84.40
20946;DHT22;10632;51.276;7.116;2023-06-14T13:44:00;24.40;83.80
20946;DHT22;10632;51.276;7.116;2023-06-14T13:46:31;24.40;83.40
20946;DHT22;10632;51.276;7.116;2023-06-14T13:49:00;24.20;83.40
20946;DHT22;10632;51.276;7.116;2023-06-14T13:51:29;24.20;84.80
20946;DHT22;10632;51.276;7.116;2023-06-14T13:53:56;24.20;84.30
20946;DHT22;10632;51.276;7.116;2023-06-14T13:56:23;24.20;82.80
20946;DHT22;10632;51.276;7.116;2023-06-14T13:58:50;24.10;82.70
20946;DHT22;10632;51.276;7.116;2023-06-14T14:01:17;24.10;83.20
20946;DHT22;10632;51.276;7.116;2023-06-14T14:03:47;24.20;83.60
20946;DHT22;10632;51.276;7.116;2023-06-14T14:06:15;24.20;84.10
20946;DHT22;10632;51.276;7.116;2023-06-14T14:08:42;24.20;83.60
20946;DHT22;10632;51.276;7.116;2023-06-14T14:11:09;24.20;85.20
20946;DHT22;10632;51.276;7.116;2023-06-14T14:13:36;24.20;83.60
20946;DHT22;10632;51.276;7.116;2023-06-14T14:16:04;24.20;83.60
20946;DHT22;10632;51.276;7.116;2023-06-14T14:18:31;24.10;83.70
20946;DHT22;10632;51.276;7.116;2023-06-14T14:21:00;23.90;84.10
20946;DHT22;10632;51.276;7.116;2023-06-14T14:23:27;23.90;85.00
20946;DHT22;10632;51.276;7.116;2023-06-14T14:25:54;23.90;84.20
20946;DHT22;10632;51.276;7.116;2023-06-14T14:28:21;23.90;84.40
20946;DHT22;10632;51.276;7.116;2023-06-14T14:30:48;24.00;82.80
20946;DHT22;10632;51.276;7.116;2023-06-14T14:33:16;24.00;83.20
20946;DHT22;10632;51.276;7.116;2023-06-14T14:35:43;23.90;82.80
20946;DHT22;10632;51.276;7.116;2023-06-14T14:38:12;23.90;83.50
20946;DHT22;10632;51.276;7.116;2023-06-14T14:40:40;23.90;83.70
20946;DHT22;10632;51.276;7.116;2023-06-14T14:43:07;23.90;84.80
20946;DHT22;10632;51.276;7.116;2023-06-14T14:45:34;24.00;84.40
20946;DHT22;10632;51.276;7.116;2023-06-14T14:48:01;24.10;83.80
20946;DHT22;10632;51.276;7.116;2023-06-14T14:50:29;24.00;83.20
20946;DHT22;10632;51.276;7.116;2023-06-14T14:52:56;23.90;84.20
20946;DHT22;10632;51.276;7.116;2023-06-14T14:55:24;23.90;85.30
20946;DHT22;10632;51.276;7.116;2023-06-14T14:57:51;23.90;82.70
20946;DHT22;10632;51.276;7.116;2023-06-14T15:00:18;23.80;82.60
20946;DHT22;10632;51.276;7.116;2023-06-14T15:02:45;23.70;82.50
20946;DHT22;10632;51.276;7.116;2023-06-14T15:05:12;23.70;83.40
20946;DHT22;10632;51.276;7.116;2023-06-14T15:07:39;23.70;83.80
20946;DHT22;10632;51.276;7.116;2023-06-14T15:10:07;23.70;83.80
20946;DHT22;10632;51.276;7.116;2023-06-14T15:12:36;23.80;83.80
20946;DHT22;10632;51.276;7.116;2023-06-14T15:15:04;23.80;83.40
20946;DHT22;10632;51.276;7.116;2023-06-14T15:17:31;23.80;84.00
20946;DHT22;10632;51.276;7.116;2023-06-14T15:19:58;23.80;83.80
20946;DHT22;10632;51.276;7.116;2023-06-14T15:22:25;23.70;84.40
20946;DHT22;10632;51.276;7.116;2023-06-14T15:24:52;23.60;84.30
20946;DHT22;10632;51.276;7.116;2023-06-14T15:27:21;23.60;84.20
20946;DHT22;10632;51.276;7.116;2023-06-14T15:29:50;23.60;82.50
20946;DHT22;10632;51.276;7.116;2023-06-14T15:32:17;23.60;83.30
20946;DHT22;10632;51.276;7.116;2023-06-14T15:34:45;23.60;83.70
20946;DHT22;10632;51.276;7.116;2023-06-14T15:37:12;23.70;84.00
20946;DHT22;10632;51.276;7.116;2023-06-14T15:39:39;23.70;84.20
20946;DHT22;10632;51.276;7.116;2023-06-14T15:42:06;23.70;84.70